Time,TemperatureF,DewpointF,PressureIn,WindDirection,WindDirectionDegrees,WindSpeedMPH,WindSpeedGustMPH,Humidity,HourlyPrecipIn,Conditions,Clouds,dailyrainin,SoftwareType,DateUTC
2013-04-12 00:04:00,46.4,44.0,29.88,West,278,0.0,0.0,90,0.00,,,0.00,weatherlink.com 1.10,2013-04-12 05:04:00,
2013-04-12 00:19:00,46.1,43.0,29.88,West,278,0.0,0.0,90,0.00,,,0.00,weatherlink.com 1.10,2013-04-12 05:19:00,
2013-04-12 00:34:00,45.8,43.0,29.88,West,279,0.0,0.0,90,0.00,,,0.00,weatherlink.com 1.10,2013-04-12 05:34:00,
2013-04-12 00:49:00,45.6,43.0,29.89,West,279,0.0,0.0,90,0.00,,,0.00,weatherlink.com 1.10,2013-04-12 05:49:00,
2013-04-12 01:04:00,45.5,43.0,29.89,West,278,0.0,0.0,90,0.00,,,0.00,weatherlink.com 1.10,2013-04-12 06:04:00,
2013-04-12 01:19:00,45.4,43.0,29.89,West,279,0.0,0.0,90,0.00,,,0.00,weatherlink.com 1.10,2013-04-12 06:19:00,
2013-04-12 01:34:00,45.0,42.0,29.89,West,278,0.0,0.0,90,0.00,,,0.00,weatherlink.com 1.10,2013-04-12 06:34:00,
2013-04-12 01:49:00,44.8,42.0,29.89,West,279,0.0,0.0,90,0.00,,,0.00,weatherlink.com 1.10,2013-04-12 06:49:00,
2013-04-12 02:04:00,44.3,42.0,29.89,West,279,0.0,0.0,90,0.00,,,0.00,weatherlink.com 1.10,2013-04-12 07:04:00,
2013-04-12 02:19:00,43.9,41.0,29.89,West,279,0.0,0.0,90,0.00,,,0.00,weatherlink.com 1.10,2013-04-12 07:19:00,
2013-04-12 02:34:00,43.5,41.0,29.90,West,279,0.0,0.0,90,0.00,,,0.00,weatherlink.com 1.10,2013-04-12 07:34:00,
2013-04-12 02:49:00,43.2,41.0,29.91,West,279,0.0,0.0,90,0.00,,,0.00,weatherlink.com 1.10,2013-04-12 07:49:00,
2013-04-12 03:04:00,42.9,40.0,29.91,West,279,0.0,0.0,90,0.00,,,0.00,weatherlink.com 1.10,2013-04-12 08:04:00,
2013-04-12 03:19:00,42.8,40.0,29.91,West,279,0.0,0.0,90,0.00,,,0.00,weatherlink.com 1.10,2013-04-12 08:19:00,
2013-04-12 03:34:00,42.8,40.0,29.91,West,279,0.0,0.0,90,0.00,,,0.00,weatherlink.com 1.10,2013-04-12 08:34:00,
2013-04-12 03:49:00,42.9,40.0,29.91,West,279,0.0,0.0,90,0.00,,,0.00,weatherlink.com 1.10,2013-04-12 08:49:00,
2013-04-12 04:04:00,42.7,40.0,29.90,West,278,0.0,0.0,90,0.00,,,0.00,weatherlink.com 1.10,2013-04-12 09:04:00,
2013-04-12 04:19:00,42.3,40.0,29.91,West,278,0.0,0.0,90,0.00,,,0.00,weatherlink.com 1.10,2013-04-12 09:19:00,
2013-04-12 04:34:00,42.0,39.0,29.91,West,278,0.0,0.0,90,0.00,,,0.00,weatherlink.com 1.10,2013-04-12 09:34:00,
2013-04-12 04:49:00,41.8,39.0,29.91,West,279,0.0,0.0,90,0.00,,,0.00,weatherlink.com 1.10,2013-04-12 09:49:00,
2013-04-12 05:04:00,41.5,39.0,29.91,West,279,0.0,0.0,90,0.00,,,0.00,weatherlink.com 1.10,2013-04-12 10:04:00,
2013-04-12 05:19:00,41.3,39.0,29.91,West,278,0.0,0.0,90,0.00,,,0.00,weatherlink.com 1.10,2013-04-12 10:19:00,
2013-04-12 05:34:00,41.0,38.0,29.92,West,279,0.0,0.0,90,0.00,,,0.00,weatherlink.com 1.10,2013-04-12 10:34:00,
2013-04-12 05:49:00,41.0,38.0,29.93,West,279,0.0,0.0,90,0.00,,,0.00,weatherlink.com 1.10,2013-04-12 10:49:00,
2013-04-12 06:04:00,41.0,38.0,29.93,West,279,0.0,0.0,90,0.00,,,0.00,weatherlink.com 1.10,2013-04-12 11:04:00,
2013-04-12 06:19:00,41.4,39.0,29.94,West,279,0.0,0.0,90,0.00,,,0.00,weatherlink.com 1.10,2013-04-12 11:19:00,
2013-04-12 06:34:00,41.2,39.0,29.94,West,279,0.0,0.0,90,0.00,,,0.00,weatherlink.com 1.10,2013-04-12 11:34:00,
2013-04-12 06:49:00,41.1,38.0,29.95,West,279,0.0,0.0,90,0.00,,,0.00,weatherlink.com 1.10,2013-04-12 11:49:00,
2013-04-12 07:04:00,41.5,39.0,29.95,West,279,0.0,0.0,90,0.00,,,0.00,weatherlink.com 1.10,2013-04-12 12:04:00,
2013-04-12 07:19:00,41.6,39.0,29.96,West,279,0.0,0.0,90,0.00,,,0.00,weatherlink.com 1.10,2013-04-12 12:19:00,
2013-04-12 07:34:00,41.6,39.0,29.96,West,279,0.0,0.0,90,0.00,,,0.00,weatherlink.com 1.10,2013-04-12 12:34:00,
2013-04-12 07:49:00,41.6,39.0,29.97,West,279,0.0,0.0,90,0.00,,,0.00,weatherlink.com 1.10,2013-04-12 12:49:00,
2013-04-12 08:04:00,42.1,39.0,29.98,West,279,0.0,0.0,90,0.00,,,0.00,weatherlink.com 1.10,2013-04-12 13:04:00,
2013-04-12 08:19:00,43.0,40.0,29.98,West,279,0.0,0.0,90,0.00,,,0.00,weatherlink.com 1.10,2013-04-12 13:19:00,
2013-04-12 08:34:00,44.5,42.0,29.99,West,279,0.0,0.0,90,0.00,,,0.00,weatherlink.com 1.10,2013-04-12 13:34:00,
2013-04-12 08:49:00,47.1,44.0,30.00,West,279,0.0,0.0,90,0.00,,,0.00,weatherlink.com 1.10,2013-04-12 13:49:00,
2013-04-12 09:05:00,49.7,47.0,30.00,West,267,0.0,1.0,89,0.00,,,0.00,weatherlink.com 1.10,2013-04-12 14:05:00,
2013-04-12 09:20:00,51.1,48.0,30.00,West,267,0.0,0.0,89,0.00,,,0.00,weatherlink.com 1.10,2013-04-12 14:20:00,
2013-04-12 09:35:00,52.0,49.0,30.01,SW,230,0.0,2.0,89,0.00,,,0.00,weatherlink.com 1.10,2013-04-12 14:35:00,
2013-04-12 09:50:00,53.8,51.0,30.02,SW,228,0.0,1.0,89,0.00,,,0.00,weatherlink.com 1.10,2013-04-12 14:50:00,
2013-04-12 10:05:00,57.4,55.0,30.02,SW,226,0.0,1.0,90,0.00,,,0.00,weatherlink.com 1.10,2013-04-12 15:05:00,
2013-04-12 10:20:00,61.9,53.0,30.02,SW,232,0.0,2.0,73,0.00,,,0.00,weatherlink.com 1.10,2013-04-12 15:20:00,
2013-04-12 10:35:00,64.4,50.0,30.02,SW,217,0.0,2.0,61,0.00,,,0.00,weatherlink.com 1.10,2013-04-12 15:35:00,
2013-04-12 10:50:00,64.8,49.0,30.03,SSE,159,0.0,3.0,56,0.00,,,0.00,weatherlink.com 1.10,2013-04-12 15:50:00,
2013-04-12 11:05:00,66.1,49.0,30.02,SE,143,0.0,3.0,54,0.00,,,0.00,weatherlink.com 1.10,2013-04-12 16:05:00,
2013-04-12 11:20:00,67.5,49.0,30.02,SE,136,0.0,1.0,52,0.00,,,0.00,weatherlink.com 1.10,2013-04-12 16:20:00,
2013-04-12 11:35:00,68.1,46.0,30.02,SSW,213,0.0,3.0,45,0.00,,,0.00,weatherlink.com 1.10,2013-04-12 16:35:00,
2013-04-12 11:50:00,69.5,48.0,30.02,SE,140,0.0,1.0,46,0.00,,,0.00,weatherlink.com 1.10,2013-04-12 16:50:00,
2013-04-12 12:20:00,69.9,38.0,30.02,SSE,159,0.0,4.0,31,0.00,,,0.00,weatherlink.com 1.10,2013-04-12 17:20:00,
2013-04-12 12:35:00,70.4,38.0,30.01,SSE,165,0.0,4.0,31,0.00,,,0.00,weatherlink.com 1.10,2013-04-12 17:35:00,
2013-04-12 12:50:00,70.9,41.0,30.00,NNW,345,2.0,4.0,34,0.00,,,0.00,weatherlink.com 1.10,2013-04-12 17:50:00,
2013-04-12 13:06:00,72.6,45.0,30.00,SSE,159,0.0,4.0,38,0.00,,,0.00,weatherlink.com 1.10,2013-04-12 18:06:00,
2013-04-12 14:36:00,75.3,49.0,29.97,SE,143,0.0,4.0,39,0.00,,,0.00,weatherlink.com 1.10,2013-04-12 19:36:00,
2013-04-12 14:51:00,75.4,46.0,29.96,SE,134,0.0,5.0,35,0.00,,,0.00,weatherlink.com 1.10,2013-04-12 19:51:00,
2013-04-12 15:06:00,75.4,43.0,29.96,NW,317,0.0,5.0,31,0.00,,,0.00,weatherlink.com 1.10,2013-04-12 20:06:00,
2013-04-12 15:21:00,75.4,41.0,29.95,East,89,0.0,3.0,29,0.00,,,0.00,weatherlink.com 1.10,2013-04-12 20:21:00,
2013-04-12 15:36:00,76.2,44.0,29.94,ESE,105,2.0,3.0,32,0.00,,,0.00,weatherlink.com 1.10,2013-04-12 20:36:00,
2013-04-12 15:51:00,76.7,45.0,29.93,SSE,153,0.0,4.0,32,0.00,,,0.00,weatherlink.com 1.10,2013-04-12 20:51:00,
2013-04-12 16:06:00,77.1,43.0,29.93,SSW,205,0.0,7.0,30,0.00,,,0.00,weatherlink.com 1.10,2013-04-12 21:06:00,
2013-04-12 16:36:00,77.1,44.0,29.93,NW,319,0.0,2.0,31,0.00,,,0.00,weatherlink.com 1.10,2013-04-12 21:36:00,
2013-04-12 16:51:00,77.2,44.0,29.92,South,181,0.0,2.0,31,0.00,,,0.00,weatherlink.com 1.10,2013-04-12 21:51:00,
2013-04-12 18:06:00,77.8,49.0,29.91,South,178,0.0,1.0,36,0.00,,,0.00,weatherlink.com 1.10,2013-04-12 23:06:00,
2013-04-12 18:36:00,75.9,47.0,29.91,South,178,0.0,0.0,36,0.00,,,0.00,weatherlink.com 1.10,2013-04-12 23:36:00,
2013-04-12 18:51:00,74.0,47.0,29.91,South,178,0.0,0.0,39,0.00,,,0.00,weatherlink.com 1.10,2013-04-12 23:51:00,
2013-04-12 19:06:00,72.2,51.0,29.91,South,178,0.0,0.0,47,0.00,,,0.00,weatherlink.com 1.10,2013-04-13 00:06:00,
2013-04-12 19:21:00,68.9,54.0,29.91,South,178,0.0,0.0,59,0.00,,,0.00,weatherlink.com 1.10,2013-04-13 00:21:00,
2013-04-12 19:36:00,66.6,54.0,29.91,South,178,0.0,0.0,64,0.00,,,0.00,weatherlink.com 1.10,2013-04-13 00:36:00,
2013-04-12 19:51:00,64.3,52.0,29.92,South,178,0.0,0.0,64,0.00,,,0.00,weatherlink.com 1.10,2013-04-13 00:51:00,
2013-04-12 20:06:00,62.5,53.0,29.92,South,178,0.0,0.0,71,0.00,,,0.00,weatherlink.com 1.10,2013-04-13 01:06:00,
2013-04-12 20:21:00,60.9,53.0,29.93,South,178,0.0,0.0,76,0.00,,,0.00,weatherlink.com 1.10,2013-04-13 01:21:00,
2013-04-12 20:36:00,59.5,52.0,29.93,South,178,0.0,0.0,77,0.00,,,0.00,weatherlink.com 1.10,2013-04-13 01:36:00,
2013-04-12 20:51:00,58.6,52.0,29.94,South,178,0.0,0.0,78,0.00,,,0.00,weatherlink.com 1.10,2013-04-13 01:51:00,
2013-04-12 21:06:00,57.7,52.0,29.94,South,178,0.0,0.0,81,0.00,,,0.00,weatherlink.com 1.10,2013-04-13 02:06:00,
2013-04-12 21:36:00,56.2,51.0,29.95,South,178,0.0,0.0,83,0.00,,,0.00,weatherlink.com 1.10,2013-04-13 02:36:00,
2013-04-12 21:51:00,55.6,51.0,29.95,South,178,0.0,0.0,85,0.00,,,0.00,weatherlink.com 1.10,2013-04-13 02:51:00,
2013-04-12 22:06:00,55.1,51.0,29.96,South,178,0.0,0.0,86,0.00,,,0.00,weatherlink.com 1.10,2013-04-13 03:06:00,
2013-04-12 22:21:00,54.7,51.0,29.96,South,178,0.0,0.0,87,0.00,,,0.00,weatherlink.com 1.10,2013-04-13 03:21:00,
2013-04-12 22:36:00,54.2,51.0,29.97,South,178,0.0,0.0,87,0.00,,,0.00,weatherlink.com 1.10,2013-04-13 03:36:00,
2013-04-12 22:51:00,53.7,50.0,29.97,South,178,0.0,0.0,88,0.00,,,0.00,weatherlink.com 1.10,2013-04-13 03:51:00,
2013-04-12 23:06:00,53.3,50.0,29.97,South,178,0.0,0.0,88,0.00,,,0.00,weatherlink.com 1.10,2013-04-13 04:06:00,
2013-04-12 23:21:00,52.8,49.0,29.97,South,178,0.0,0.0,88,0.00,,,0.00,weatherlink.com 1.10,2013-04-13 04:21:00,
2013-04-12 23:36:00,52.3,49.0,29.97,South,178,0.0,0.0,89,0.00,,,0.00,weatherlink.com 1.10,2013-04-13 04:36:00,
2013-04-12 23:51:00,52.1,49.0,29.98,South,178,0.0,0.0,89,0.00,,,0.00,weatherlink.com 1.10,2013-04-13 04:51:00,